Time;durP1;ratioP1;P1;durP2;ratioP2;P2;SDS_P1;SDS_P2;PMS_P1;PMS_P2;Temp;Humidity;BMP_temperature;BMP_pressure;BME280_temperature;BME280_humidity;BME280_pressure;Samples;Min_cycle;Max_cycle;Signal;HPM_P1;HPM_P2
2024/02/01 07:58:09;;;;;;;3.28;2.95;;;;;;;;;;5100543;28;20601;-81
2024/02/01 08:00:45;;;;;;;2.97;2.67;;;;;;;;;;5100455;28;20227;-81
2024/02/01 08:03:22;;;;;;;3.63;3.03;;;;;;;;;;5100616;28;20210;-80
2024/02/01 08:08:37;;;;;;;4.15;3.15;;;;;;;;;;5098376;28;20283;-81
2024/02/01 08:11:05;;;;;;;4.15;3.35;;;;;;;;;;5088788;28;20574;-81
2024/02/01 08:13:32;;;;;;;4.25;3.17;;;;;;;;;;5090872;28;20205;-81
2024/02/01 08:16:02;;;;;;;3.15;2.78;;;;;;;;;;5092047;28;20211;-81
2024/02/01 08:18:34;;;;;;;4.00;3.70;;;;;;;;;;5091293;28;20231;-80
2024/02/01 08:21:03;;;;;;;2.60;2.40;;;;;;;;;;5091966;28;20215;-80
2024/02/01 08:23:31;;;;;;;2.67;2.45;;;;;;;;;;5097474;28;20662;-80
2024/02/01 08:26:02;;;;;;;3.17;2.60;;;;;;;;;;5089630;28;20297;-82
2024/02/01 08:28:33;;;;;;;2.58;2.38;;;;;;;;;;5097066;28;20204;-79
2024/02/01 08:31:02;;;;;;;2.97;2.67;;;;;;;;;;5094960;28;20565;-81
2024/02/01 08:33:30;;;;;;;3.67;2.60;;;;;;;;;;5090726;28;20204;-80
2024/02/01 08:35:58;;;;;;;2.33;2.15;;;;;;;;;;5099992;28;20287;-81
2024/02/01 08:38:26;;;;;;;7.68;4.22;;;;;;;;;;5084868;28;20659;-80
2024/02/01 08:40:53;;;;;;;2.95;2.42;;;;;;;;;;5092314;28;20231;-80
2024/02/01 08:43:22;;;;;;;3.92;2.90;;;;;;;;;;5091018;28;20287;-84
2024/02/01 08:45:50;;;;;;;7.70;2.70;;;;;;;;;;5093365;28;20226;-80
2024/02/01 08:48:20;;;;;;;11.63;4.10;;;;;;;;;;5100672;28;20263;-80
2024/02/01 08:50:48;;;;;;;4.10;3.65;;;;;;;;;;5097941;28;20201;-81
2024/02/01 08:53:17;;;;;;;3.22;2.60;;;;;;;;;;5096789;28;20214;-80
2024/02/01 08:55:51;;;;;;;5.90;3.50;;;;;;;;;;5100264;28;20302;-80
2024/02/01 08:58:21;;;;;;;3.90;2.10;;;;;;;;;;5099858;28;20232;-80
2024/02/01 09:00:49;;;;;;;2.53;2.28;;;;;;;;;;5100604;28;20314;-81
2024/02/01 09:03:16;;;;;;;2.55;2.13;;;;;;;;;;5099979;28;20200;-81
2024/02/01 09:05:53;;;;;;;3.47;2.30;;;;;;;;;;5100436;28;20200;-79
2024/02/01 09:08:24;;;;;;;2.60;2.40;;;;;;;;;;5094965;28;20216;-81
2024/02/01 09:10:58;;;;;;;3.17;2.83;;;;;;;;;;5100025;28;20246;-80
2024/02/01 09:13:30;;;;;;;2.97;2.38;;;;;;;;;;5100317;28;20677;-79
2024/02/01 09:15:57;;;;;;;3.50;2.33;;;;;;;;;;5090557;28;20257;-81
2024/02/01 09:18:25;;;;;;;5.35;2.92;;;;;;;;;;5098410;28;20220;-80
2024/02/01 09:20:52;;;;;;;3.53;2.53;;;;;;;;;;5099043;28;20311;-79
2024/02/01 09:23:22;;;;;;;2.63;2.17;;;;;;;;;;5098800;28;20212;-80
2024/02/01 09:25:49;;;;;;;3.22;2.53;;;;;;;;;;5099701;28;20303;-78
2024/02/01 09:28:17;;;;;;;2.88;1.90;;;;;;;;;;5100072;28;20234;-80
2024/02/01 09:30:48;;;;;;;5.00;2.33;;;;;;;;;;5100733;28;20246;-82
2024/02/01 09:33:17;;;;;;;6.55;2.70;;;;;;;;;;5100165;28;20291;-81
2024/02/01 09:35:44;;;;;;;2.40;2.20;;;;;;;;;;5102439;28;20635;-80
2024/02/01 09:38:12;;;;;;;7.07;3.15;;;;;;;;;;5101669;28;20243;-80
2024/02/01 09:40:42;;;;;;;2.90;2.08;;;;;;;;;;5091630;28;20303;-81
2024/02/01 09:43:17;;;;;;;6.10;3.08;;;;;;;;;;5101535;28;20219;-81
2024/02/01 09:45:46;;;;;;;2.58;2.00;;;;;;;;;;5101487;28;20203;-80
2024/02/01 09:48:16;;;;;;;2.60;2.10;;;;;;;;;;5092688;28;20235;-80
2024/02/01 09:50:51;;;;;;;3.78;2.25;;;;;;;;;;5102461;28;20271;-81
2024/02/01 09:53:21;;;;;;;2.83;2.00;;;;;;;;;;5102847;28;20199;-81
2024/02/01 09:55:50;;;;;;;4.43;3.08;;;;;;;;;;5104441;28;20268;-82
2024/02/01 09:58:18;;;;;;;5.53;2.78;;;;;;;;;;5101273;28;20690;-83
2024/02/01 10:00:47;;;;;;;4.63;2.13;;;;;;;;;;5102668;28;20223;-81
2024/02/01 10:03:15;;;;;;;2.83;2.10;;;;;;;;;;5101451;28;20648;-81
2024/02/01 10:05:44;;;;;;;3.38;2.42;;;;;;;;;;5101220;28;20228;-82
2024/02/01 10:08:14;;;;;;;3.20;2.53;;;;;;;;;;5100559;28;20255;-81
2024/02/01 10:10:45;;;;;;;5.72;2.28;;;;;;;;;;5100500;28;20234;-81
2024/02/01 10:13:14;;;;;;;7.30;2.00;;;;;;;;;;5101366;28;20247;-81
2024/02/01 10:15:44;;;;;;;4.03;2.25;;;;;;;;;;5102698;28;20570;-81
2024/02/01 10:18:19;;;;;;;7.38;1.73;;;;;;;;;;5105989;28;20251;-81
2024/02/01 10:20:51;;;;;;;6.45;1.92;;;;;;;;;;5096993;28;20296;-81
2024/02/01 10:23:19;;;;;;;7.30;3.85;;;;;;;;;;5100999;28;20303;-79
2024/02/01 10:25:49;;;;;;;9.25;3.15;;;;;;;;;;5101660;28;20215;-81
2024/02/01 10:28:18;;;;;;;6.75;2.60;;;;;;;;;;5102881;28;20222;-80
2024/02/01 10:30:47;;;;;;;4.93;2.20;;;;;;;;;;5093763;28;20236;-81
2024/02/01 10:33:18;;;;;;;3.13;1.63;;;;;;;;;;5103751;28;20218;-80
2024/02/01 10:35:50;;;;;;;4.68;1.88;;;;;;;;;;5103447;28;20256;-81
2024/02/01 10:38:23;;;;;;;3.00;1.55;;;;;;;;;;5094528;28;20224;-80
2024/02/01 10:41:10;;;;;;;5.82;2.63;;;;;;;;;;5091600;28;20236;-82
2024/02/01 10:43:44;;;;;;;8.23;2.53;;;;;;;;;;5094549;28;20192;-82
2024/02/01 10:46:13;;;;;;;9.07;3.05;;;;;;;;;;5102281;28;20631;-82
2024/02/01 10:48:47;;;;;;;9.07;2.75;;;;;;;;;;5103579;28;20733;-81
2024/02/01 10:51:15;;;;;;;10.20;3.03;;;;;;;;;;5102328;28;20208;-80
2024/02/01 10:53:46;;;;;;;10.38;2.50;;;;;;;;;;5098690;28;20683;-81
2024/02/01 10:56:14;;;;;;;7.63;2.40;;;;;;;;;;5095259;28;20232;-81
2024/02/01 10:58:46;;;;;;;4.88;2.55;;;;;;;;;;5093367;28;20200;-82
2024/02/01 11:01:15;;;;;;;9.20;3.08;;;;;;;;;;5092801;28;20575;-81
2024/02/01 11:03:51;;;;;;;12.77;3.42;;;;;;;;;;5086600;28;20231;-80
2024/02/01 11:06:20;;;;;;;17.27;9.38;;;;;;;;;;5103776;28;20662;-81
2024/02/01 11:08:51;;;;;;;14.90;6.80;;;;;;;;;;5102591;28;20220;-81
2024/02/01 11:11:20;;;;;;;7.50;3.72;;;;;;;;;;5102053;28;20246;-82
2024/02/01 11:13:49;;;;;;;12.35;3.08;;;;;;;;;;5100956;28;20294;-82
2024/02/01 11:16:18;;;;;;;15.27;4.65;;;;;;;;;;5102347;28;20213;-79
2024/02/01 11:18:55;;;;;;;7.38;2.50;;;;;;;;;;5101837;28;20205;-80
2024/02/01 11:21:29;;;;;;;7.90;2.45;;;;;;;;;;5103687;28;20683;-81
2024/02/01 11:24:06;;;;;;;7.93;2.90;;;;;;;;;;5107743;28;20204;-81
2024/02/01 11:26:40;;;;;;;7.03;2.80;;;;;;;;;;5106016;28;20283;-81
2024/02/01 11:29:10;;;;;;;17.98;6.43;;;;;;;;;;5105890;28;20210;-80
2024/02/01 11:31:38;;;;;;;11.65;4.95;;;;;;;;;;5106220;28;20616;-82
2024/02/01 11:34:07;;;;;;;9.18;3.08;;;;;;;;;;5104911;28;20572;-81
2024/02/01 11:36:36;;;;;;;5.20;2.45;;;;;;;;;;5107002;28;20705;-82
2024/02/01 11:39:04;;;;;;;8.18;4.60;;;;;;;;;;5105819;28;20298;-81
2024/02/01 11:41:32;;;;;;;10.15;2.67;;;;;;;;;;5102468;28;20628;-82
2024/02/01 11:44:00;;;;;;;7.03;2.38;;;;;;;;;;5104181;28;20271;-81
2024/02/01 11:46:28;;;;;;;8.57;3.40;;;;;;;;;;5104202;28;20345;-82
2024/02/01 11:48:57;;;;;;;5.60;2.78;;;;;;;;;;5105422;28;20207;-84
2024/02/01 11:51:26;;;;;;;7.85;2.55;;;;;;;;;;5104309;28;20673;-84
2024/02/01 11:53:54;;;;;;;11.60;3.85;;;;;;;;;;5095930;28;20295;-83
2024/02/01 11:56:22;;;;;;;13.68;3.63;;;;;;;;;;5103385;28;20660;-83
2024/02/01 11:58:50;;;;;;;8.60;2.60;;;;;;;;;;5103700;28;20565;-82
2024/02/01 12:01:18;;;;;;;6.88;2.75;;;;;;;;;;5103489;28;20306;-82
2024/02/01 12:03:51;;;;;;;10.80;3.00;;;;;;;;;;5092440;28;20292;-84
2024/02/01 12:06:22;;;;;;;7.20;2.85;;;;;;;;;;5100668;28;20204;-83
2024/02/01 12:08:52;;;;;;;8.32;3.35;;;;;;;;;;5103098;28;20646;-83
2024/02/01 12:11:23;;;;;;;13.25;3.22;;;;;;;;;;5104088;28;20208;-82
2024/02/01 12:13:51;;;;;;;5.57;2.63;;;;;;;;;;5103886;28;20203;-81
2024/02/01 12:16:30;;;;;;;7.75;4.30;;;;;;;;;;5104188;28;20211;-83
2024/02/01 12:18:59;;;;;;;6.53;3.13;;;;;;;;;;5104169;28;20200;-82
2024/02/01 12:21:30;;;;;;;5.38;2.78;;;;;;;;;;5094916;28;20227;-82
2024/02/01 12:23:59;;;;;;;12.35;4.53;;;;;;;;;;5102992;28;20196;-83
2024/02/01 12:26:27;;;;;;;10.23;3.25;;;;;;;;;;5096000;28;20287;-82
2024/02/01 12:28:56;;;;;;;11.10;2.67;;;;;;;;;;5104620;28;20219;-82
2024/02/01 12:31:24;;;;;;;10.18;4.50;;;;;;;;;;5094387;28;20279;-83
2024/02/01 12:33:54;;;;;;;11.05;5.07;;;;;;;;;;5096242;28;20268;-81
2024/02/01 12:36:22;;;;;;;7.32;2.47;;;;;;;;;;5086082;28;20316;-83
2024/02/01 12:38:52;;;;;;;8.23;2.50;;;;;;;;;;5093809;28;20206;-82
2024/02/01 12:41:21;;;;;;;8.43;2.25;;;;;;;;;;5094807;28;20315;-83
2024/02/01 12:43:51;;;;;;;7.57;2.97;;;;;;;;;;5098438;28;20239;-83
2024/02/01 12:46:24;;;;;;;13.80;2.67;;;;;;;;;;5099332;28;20203;-82
2024/02/01 12:48:52;;;;;;;7.90;2.95;;;;;;;;;;5102559;28;20228;-83
2024/02/01 12:51:26;;;;;;;7.32;2.80;;;;;;;;;;5101913;28;20227;-83
2024/02/01 12:53:55;;;;;;;7.68;3.40;;;;;;;;;;5093796;28;20197;-82
2024/02/01 12:56:25;;;;;;;6.55;2.30;;;;;;;;;;5094614;28;20228;-82
2024/02/01 12:58:52;;;;;;;7.75;2.20;;;;;;;;;;5102876;28;20227;-82
2024/02/01 13:01:22;;;;;;;8.82;2.20;;;;;;;;;;5094267;28;20240;-82
2024/02/01 13:03:50;;;;;;;5.50;2.38;;;;;;;;;;5102456;28;20215;-83
2024/02/01 13:06:18;;;;;;;8.65;2.83;;;;;;;;;;5101673;28;20208;-82
2024/02/01 13:08:46;;;;;;;7.15;2.45;;;;;;;;;;5102056;28;20690;-81
2024/02/01 13:11:14;;;;;;;6.57;2.47;;;;;;;;;;5102192;28;20230;-80
2024/02/01 13:13:42;;;;;;;8.35;2.50;;;;;;;;;;5101667;28;20267;-83
2024/02/01 13:16:14;;;;;;;12.65;2.58;;;;;;;;;;5102726;28;20272;-82
2024/02/01 13:18:42;;;;;;;7.72;2.65;;;;;;;;;;5090002;28;20284;-80
2024/02/01 13:21:10;;;;;;;6.93;2.10;;;;;;;;;;5097617;28;20200;-82
2024/02/01 13:23:37;;;;;;;7.00;2.75;;;;;;;;;;5100845;28;20228;-82
2024/02/01 13:26:05;;;;;;;7.30;2.53;;;;;;;;;;5101015;28;20208;-82
2024/02/01 13:28:33;;;;;;;8.80;2.67;;;;;;;;;;5102261;28;20290;-83
2024/02/01 13:31:01;;;;;;;11.63;2.95;;;;;;;;;;5101622;28;20228;-83
2024/02/01 13:33:29;;;;;;;5.68;2.40;;;;;;;;;;5100425;28;20283;-81
2024/02/01 13:35:56;;;;;;;5.45;2.65;;;;;;;;;;5101754;28;20236;-82
2024/02/01 13:38:24;;;;;;;5.32;2.15;;;;;;;;;;5101797;28;20288;-81
2024/02/01 13:40:54;;;;;;;8.05;3.33;;;;;;;;;;5101192;28;20291;-82
2024/02/01 13:43:21;;;;;;;7.97;3.05;;;;;;;;;;5101204;28;20248;-82
2024/02/01 13:45:49;;;;;;;5.80;1.88;;;;;;;;;;5092891;28;20288;-82
2024/02/01 13:48:18;;;;;;;7.00;2.03;;;;;;;;;;5100251;28;20228;-78
2024/02/01 13:50:46;;;;;;;9.50;3.17;;;;;;;;;;5099044;28;20207;-78
2024/02/01 13:53:17;;;;;;;9.63;2.30;;;;;;;;;;5098518;28;20655;-78
2024/02/01 13:55:44;;;;;;;6.88;2.40;;;;;;;;;;5098968;28;20191;-78
2024/02/01 13:58:12;;;;;;;4.20;2.08;;;;;;;;;;5099323;28;20287;-79
2024/02/01 14:00:39;;;;;;;8.40;2.45;;;;;;;;;;5099062;28;20650;-78
2024/02/01 14:03:07;;;;;;;5.68;2.33;;;;;;;;;;5098822;28;20224;-79
2024/02/01 14:05:35;;;;;;;6.32;2.55;;;;;;;;;;5098437;28;20291;-79
2024/02/01 14:08:08;;;;;;;7.63;2.17;;;;;;;;;;5099141;28;20247;-78
2024/02/01 14:10:36;;;;;;;7.28;2.55;;;;;;;;;;5095802;28;20219;-79
2024/02/01 14:13:06;;;;;;;6.90;2.38;;;;;;;;;;5078706;28;20570;-79
2024/02/01 14:15:36;;;;;;;5.45;2.33;;;;;;;;;;5078857;28;20703;-79
2024/02/01 14:18:03;;;;;;;6.97;2.28;;;;;;;;;;5079071;28;20220;-78
2024/02/01 14:20:31;;;;;;;6.07;2.40;;;;;;;;;;5079106;28;20288;-79
2024/02/01 14:22:59;;;;;;;5.00;2.15;;;;;;;;;;5078102;28;20584;-78
2024/02/01 14:25:27;;;;;;;7.57;2.58;;;;;;;;;;5078691;28;20722;-78
2024/02/01 14:27:54;;;;;;;5.70;2.08;;;;;;;;;;5092331;28;20288;-78
2024/02/01 14:30:22;;;;;;;7.70;2.50;;;;;;;;;;5098743;28;20226;-77
2024/02/01 14:32:50;;;;;;;5.28;2.55;;;;;;;;;;5099620;28;20192;-78
2024/02/01 14:35:17;;;;;;;3.92;1.92;;;;;;;;;;5098742;28;20196;-78
2024/02/01 14:37:45;;;;;;;8.05;3.55;;;;;;;;;;5098319;28;20222;-78
2024/02/01 14:40:14;;;;;;;8.32;2.30;;;;;;;;;;5098807;28;20204;-79
2024/02/01 14:42:42;;;;;;;7.82;2.70;;;;;;;;;;5095143;28;20658;-79
2024/02/01 14:45:11;;;;;;;4.63;1.90;;;;;;;;;;5078223;28;20203;-79
2024/02/01 14:47:39;;;;;;;6.45;2.00;;;;;;;;;;5081173;28;20254;-78
2024/02/01 14:50:07;;;;;;;7.57;2.65;;;;;;;;;;5099545;28;20221;-79
2024/02/01 14:52:35;;;;;;;5.22;2.08;;;;;;;;;;5099033;28;20291;-79
2024/02/01 14:55:02;;;;;;;3.42;2.08;;;;;;;;;;5099449;28;20684;-79
2024/02/01 14:57:32;;;;;;;4.47;2.00;;;;;;;;;;5102677;28;20287;-79
2024/02/01 15:00:00;;;;;;;7.10;2.33;;;;;;;;;;5102396;28;20215;-78
2024/02/01 15:02:27;;;;;;;6.97;1.95;;;;;;;;;;5102554;28;20212;-78
2024/02/01 15:04:56;;;;;;;8.88;3.03;;;;;;;;;;5103275;28;20290;-79
2024/02/01 15:07:24;;;;;;;6.85;2.28;;;;;;;;;;5102740;28;20220;-78
2024/02/01 15:09:53;;;;;;;7.70;1.95;;;;;;;;;;5103294;28;20203;-79
2024/02/01 15:12:22;;;;;;;5.65;2.47;;;;;;;;;;5102612;28;20207;-79
2024/02/01 15:14:51;;;;;;;5.85;2.50;;;;;;;;;;5103067;28;20270;-79
2024/02/01 15:17:18;;;;;;;4.22;2.42;;;;;;;;;;5103516;28;20291;-79
2024/02/01 15:19:46;;;;;;;4.00;2.38;;;;;;;;;;5102837;28;20210;-79
2024/02/01 15:22:14;;;;;;;8.13;3.15;;;;;;;;;;5101154;28;20207;-79
2024/02/01 15:24:41;;;;;;;5.22;1.80;;;;;;;;;;5101983;28;20266;-79
2024/02/01 15:27:10;;;;;;;23.48;3.25;;;;;;;;;;5102406;28;20288;-79
2024/02/01 15:29:42;;;;;;;6.68;2.20;;;;;;;;;;5097995;28;20205;-78
2024/02/01 15:32:16;;;;;;;4.30;2.42;;;;;;;;;;5082451;28;20616;-78
2024/02/01 15:34:43;;;;;;;5.15;2.17;;;;;;;;;;5081537;28;20223;-79
2024/02/01 15:37:11;;;;;;;6.82;2.50;;;;;;;;;;5081310;28;20232;-79
2024/02/01 15:39:39;;;;;;;9.88;3.70;;;;;;;;;;5092703;28;20287;-78
2024/02/01 15:42:08;;;;;;;4.25;2.25;;;;;;;;;;5101729;28;20201;-78
2024/02/01 15:44:38;;;;;;;9.35;2.13;;;;;;;;;;5101465;28;20253;-78
2024/02/01 15:47:06;;;;;;;6.03;2.40;;;;;;;;;;5100950;28;20236;-79
2024/02/01 15:49:34;;;;;;;12.23;3.03;;;;;;;;;;5101960;28;20236;-78
2024/02/01 15:52:02;;;;;;;5.53;2.38;;;;;;;;;;5101181;28;20204;-78
2024/02/01 15:54:30;;;;;;;7.93;2.92;;;;;;;;;;5081962;28;20211;-78
2024/02/01 15:56:57;;;;;;;5.10;2.65;;;;;;;;;;5080835;28;20582;-77
2024/02/01 15:59:24;;;;;;;8.88;2.60;;;;;;;;;;5079994;28;20200;-79
2024/02/01 16:01:52;;;;;;;9.23;3.70;;;;;;;;;;5079999;28;20207;-79
2024/02/01 16:04:19;;;;;;;10.00;4.45;;;;;;;;;;5080929;28;20311;-78
2024/02/01 16:06:48;;;;;;;8.77;2.22;;;;;;;;;;5079965;28;20217;-79
2024/02/01 16:09:17;;;;;;;7.13;2.55;;;;;;;;;;5080250;28;20226;-78
2024/02/01 16:11:44;;;;;;;6.65;2.45;;;;;;;;;;5079281;28;20208;-79
2024/02/01 16:14:20;;;;;;;13.00;2.85;;;;;;;;;;5080217;28;20268;-78
2024/02/01 16:16:48;;;;;;;4.93;2.50;;;;;;;;;;5079444;28;20221;-78
2024/02/01 16:19:31;;;;;;;7.68;2.50;;;;;;;;;;5080670;28;20679;-78
2024/02/01 16:22:01;;;;;;;5.93;2.35;;;;;;;;;;5079519;28;20189;-77
2024/02/01 16:24:55;;;;;;;6.85;2.92;;;;;;;;;;5079563;28;20267;-79
2024/02/01 16:28:06;;;;;;;8.50;2.60;;;;;;;;;;5097053;28;20220;-79
2024/02/01 16:31:00;;;;;;;8.20;3.13;;;;;;;;;;5097145;28;20185;-78
2024/02/01 16:33:32;;;;;;;10.40;3.15;;;;;;;;;;5089346;28;20200;-78
2024/02/01 16:36:06;;;;;;;7.80;2.97;;;;;;;;;;5099678;28;20661;-78
2024/02/01 16:38:37;;;;;;;9.77;2.88;;;;;;;;;;5099763;28;20601;-78
2024/02/01 16:41:06;;;;;;;6.70;3.10;;;;;;;;;;5099411;28;20210;-78
2024/02/01 16:43:36;;;;;;;7.15;3.40;;;;;;;;;;5099141;28;20200;-78
2024/02/01 16:46:17;;;;;;;5.15;2.30;;;;;;;;;;5100281;28;20607;-78
2024/02/01 16:48:45;;;;;;;5.35;2.33;;;;;;;;;;5099504;28;20262;-78
2024/02/01 16:51:14;;;;;;;7.57;2.42;;;;;;;;;;5098943;28;20204;-78
2024/02/01 16:53:44;;;;;;;5.53;2.80;;;;;;;;;;5100093;28;20206;-78
2024/02/01 16:56:13;;;;;;;4.55;2.10;;;;;;;;;;5099521;28;20220;-78
2024/02/01 16:58:44;;;;;;;3.72;1.98;;;;;;;;;;5079340;28;20292;-78
2024/02/01 17:01:36;;;;;;;12.35;3.67;;;;;;;;;;5079093;28;20213;-78
2024/02/01 17:04:07;;;;;;;7.60;3.10;;;;;;;;;;5078030;28;20205;-78
2024/02/01 17:06:35;;;;;;;8.43;2.58;;;;;;;;;;5078309;28;20315;-78
2024/02/01 17:09:06;;;;;;;11.60;3.40;;;;;;;;;;5078233;28;20693;-78
2024/02/01 17:11:35;;;;;;;3.83;2.13;;;;;;;;;;5079096;28;20189;-78
2024/02/01 17:14:24;;;;;;;5.78;2.78;;;;;;;;;;5077625;28;20201;-78
2024/02/01 17:17:02;;;;;;;9.52;5.30;;;;;;;;;;5077399;28;20243;-78
2024/02/01 17:19:35;;;;;;;7.80;4.35;;;;;;;;;;5077048;28;20278;-78
2024/02/01 17:22:09;;;;;;;11.70;4.43;;;;;;;;;;5077382;28;20296;-78
2024/02/01 17:24:38;;;;;;;8.70;4.32;;;;;;;;;;5078208;28;20205;-78
2024/02/01 17:27:06;;;;;;;8.23;5.45;;;;;;;;;;5084326;28;20716;-78
2024/02/01 17:29:34;;;;;;;8.00;4.00;;;;;;;;;;5097565;28;20671;-78
2024/02/01 17:32:02;;;;;;;8.32;2.90;;;;;;;;;;5097556;28;20204;-78
2024/02/01 17:34:36;;;;;;;5.97;2.80;;;;;;;;;;5097103;28;20192;-78
2024/02/01 17:37:35;;;;;;;5.15;3.10;;;;;;;;;;5098429;28;20220;-78
2024/02/01 17:40:07;;;;;;;8.23;3.92;;;;;;;;;;5081716;28;20227;-78
2024/02/01 17:42:37;;;;;;;7.32;3.38;;;;;;;;;;5097905;28;20714;-78
2024/02/01 17:45:36;;;;;;;8.82;4.47;;;;;;;;;;5097385;28;20220;-78
2024/02/01 17:48:11;;;;;;;16.15;6.55;;;;;;;;;;5097119;28;20224;-78
2024/02/01 17:50:43;;;;;;;8.95;3.78;;;;;;;;;;5097290;28;20613;-77
2024/02/01 17:53:11;;;;;;;11.18;4.05;;;;;;;;;;5097769;28;20273;-78
2024/02/01 17:55:46;;;;;;;15.30;3.70;;;;;;;;;;5097441;28;20283;-79
2024/02/01 17:58:47;;;;;;;5.63;2.70;;;;;;;;;;5097986;28;20220;-79
2024/02/01 18:01:19;;;;;;;7.25;2.53;;;;;;;;;;5097729;28;20199;-79
2024/02/01 18:03:49;;;;;;;5.65;2.53;;;;;;;;;;5098244;28;20250;-78
2024/02/01 18:06:38;;;;;;;4.80;2.35;;;;;;;;;;5097567;28;20636;-78
2024/02/01 18:09:06;;;;;;;7.95;3.45;;;;;;;;;;5097369;28;20200;-78
2024/02/01 18:11:36;;;;;;;4.15;2.50;;;;;;;;;;5097617;28;20295;-78
2024/02/01 18:14:05;;;;;;;4.78;3.22;;;;;;;;;;5096923;28;20249;-79
2024/02/01 18:16:41;;;;;;;6.50;3.60;;;;;;;;;;5096839;28;20200;-78
2024/02/01 18:19:17;;;;;;;12.48;4.68;;;;;;;;;;5097580;28;20204;-78
2024/02/01 18:21:45;;;;;;;7.25;3.50;;;;;;;;;;5097075;28;20234;-78
2024/02/01 18:24:22;;;;;;;8.43;4.10;;;;;;;;;;5096000;28;20204;-78
2024/02/01 18:26:51;;;;;;;6.07;3.30;;;;;;;;;;5097107;28;20664;-78
2024/02/01 18:29:33;;;;;;;9.10;2.70;;;;;;;;;;5097805;28;20576;-77
2024/02/01 18:32:01;;;;;;;5.80;2.72;;;;;;;;;;5101121;28;20216;-78
2024/02/01 18:34:33;;;;;;;14.80;4.70;;;;;;;;;;5101228;28;20573;-78
2024/02/01 18:37:01;;;;;;;5.03;3.65;;;;;;;;;;5101347;28;20227;-78
2024/02/01 18:39:32;;;;;;;9.10;3.20;;;;;;;;;;5100627;28;20208;-79
2024/02/01 18:42:01;;;;;;;13.40;4.32;;;;;;;;;;5100686;28;20212;-79
2024/02/01 18:44:29;;;;;;;9.85;4.38;;;;;;;;;;5100419;28;20200;-79
2024/02/01 18:47:05;;;;;;;7.18;3.65;;;;;;;;;;5099995;28;20260;-79
2024/02/01 18:49:33;;;;;;;6.25;3.83;;;;;;;;;;5100388;28;20184;-79
2024/02/01 18:52:03;;;;;;;3.83;2.30;;;;;;;;;;5099734;28;20242;-78
2024/02/01 18:54:37;;;;;;;7.40;3.05;;;;;;;;;;5100174;28;20207;-78
2024/02/01 18:57:07;;;;;;;6.35;2.22;;;;;;;;;;5100431;28;20220;-78
2024/02/01 18:59:54;;;;;;;7.32;3.75;;;;;;;;;;5100136;28;20625;-78
2024/02/01 19:02:51;;;;;;;6.30;2.88;;;;;;;;;;5100290;28;20257;-79
2024/02/01 19:05:20;;;;;;;5.05;2.65;;;;;;;;;;5099948;28;20251;-79
2024/02/01 19:07:58;;;;;;;4.75;2.08;;;;;;;;;;5099204;28;20322;-78
2024/02/01 19:10:42;;;;;;;4.07;2.22;;;;;;;;;;5099880;28;20204;-78
2024/02/01 19:13:47;;;;;;;7.13;2.20;;;;;;;;;;5099532;28;20204;-78
2024/02/01 19:16:18;;;;;;;2.88;1.77;;;;;;;;;;5087185;28;20184;-78
2024/02/01 19:18:46;;;;;;;3.55;1.95;;;;;;;;;;5079396;28;20232;-78
2024/02/01 19:21:14;;;;;;;10.63;3.05;;;;;;;;;;5087492;28;20204;-78
2024/02/01 19:23:43;;;;;;;5.40;2.65;;;;;;;;;;5099121;28;20200;-78
2024/02/01 19:26:11;;;;;;;2.75;1.95;;;;;;;;;;5098876;28;20220;-78
2024/02/01 19:28:48;;;;;;;3.35;1.58;;;;;;;;;;5100001;28;20204;-77
2024/02/01 19:31:18;;;;;;;4.22;2.28;;;;;;;;;;5099812;28;20204;-79
2024/02/01 19:33:50;;;;;;;4.95;2.55;;;;;;;;;;5099085;28;20215;-78
2024/02/01 19:36:32;;;;;;;4.18;2.30;;;;;;;;;;5098801;28;20197;-78
2024/02/01 19:39:10;;;;;;;6.53;2.65;;;;;;;;;;5099061;28;20212;-78
2024/02/01 19:41:39;;;;;;;5.55;2.50;;;;;;;;;;5097892;28;20200;-78
2024/02/01 19:44:09;;;;;;;2.65;1.90;;;;;;;;;;5098988;28;20259;-78
2024/02/01 19:46:37;;;;;;;4.68;2.33;;;;;;;;;;5099500;28;20233;-78
2024/02/01 19:49:07;;;;;;;3.15;2.38;;;;;;;;;;5099740;28;20200;-78
2024/02/01 19:51:37;;;;;;;8.05;3.17;;;;;;;;;;5098999;28;20200;-77
2024/02/01 19:54:05;;;;;;;6.25;3.08;;;;;;;;;;5098970;28;20208;-79
2024/02/01 19:56:32;;;;;;;9.88;3.38;;;;;;;;;;5099646;28;20256;-79
2024/02/01 19:59:01;;;;;;;5.05;2.63;;;;;;;;;;5098556;28;20204;-77
2024/02/01 20:01:30;;;;;;;8.77;2.60;;;;;;;;;;5098161;28;20211;-78
2024/02/01 20:03:58;;;;;;;7.88;3.08;;;;;;;;;;5099055;28;20201;-78
2024/02/01 20:06:27;;;;;;;8.40;3.10;;;;;;;;;;5098982;28;20228;-79
2024/02/01 20:08:57;;;;;;;6.93;3.60;;;;;;;;;;5093153;28;20205;-78
2024/02/01 20:11:28;;;;;;;6.85;3.13;;;;;;;;;;5096510;28;20209;-78
2024/02/01 20:13:57;;;;;;;4.85;2.55;;;;;;;;;;5097666;28;20200;-78
2024/02/01 20:16:25;;;;;;;4.72;2.33;;;;;;;;;;5099501;28;20220;-78
2024/02/01 20:18:54;;;;;;;5.47;2.75;;;;;;;;;;5098925;28;20260;-78
2024/02/01 20:21:21;;;;;;;3.53;2.50;;;;;;;;;;5098207;28;20634;-79
2024/02/01 20:23:51;;;;;;;4.68;2.80;;;;;;;;;;5098957;28;20204;-79
2024/02/01 20:26:21;;;;;;;5.88;3.70;;;;;;;;;;5089191;28;20230;-79
2024/02/01 20:28:56;;;;;;;2.88;2.38;;;;;;;;;;5091725;28;20204;-79
2024/02/01 20:31:30;;;;;;;3.65;2.30;;;;;;;;;;5098786;28;20263;-79
2024/02/01 20:34:02;;;;;;;6.05;3.05;;;;;;;;;;5097996;28;20215;-79
2024/02/01 20:36:54;;;;;;;8.35;3.90;;;;;;;;;;5097915;28;20220;-79
2024/02/01 20:39:29;;;;;;;4.93;2.92;;;;;;;;;;5098375;28;20204;-78
2024/02/01 20:41:59;;;;;;;10.77;4.30;;;;;;;;;;5097923;28;20192;-78
2024/02/01 20:44:33;;;;;;;11.13;3.58;;;;;;;;;;5097896;28;20204;-77
2024/02/01 20:47:03;;;;;;;4.53;2.75;;;;;;;;;;5098076;28;20228;-76
2024/02/01 20:49:33;;;;;;;4.93;3.08;;;;;;;;;;5098532;28;20228;-78
2024/02/01 20:52:02;;;;;;;6.00;3.53;;;;;;;;;;5098579;28;20816;-78
2024/02/01 20:54:34;;;;;;;7.00;3.80;;;;;;;;;;5098792;28;20664;-78
2024/02/01 20:57:34;;;;;;;7.38;3.75;;;;;;;;;;5098340;28;20244;-78
2024/02/01 21:00:03;;;;;;;6.10;3.28;;;;;;;;;;5092180;28;20204;-78
2024/02/01 21:03:10;;;;;;;3.70;2.70;;;;;;;;;;5097701;28;20211;-78
2024/02/01 21:05:44;;;;;;;6.53;4.30;;;;;;;;;;5097913;28;20207;-78
2024/02/01 21:08:33;;;;;;;5.38;3.13;;;;;;;;;;5098136;28;20606;-78
2024/02/01 21:11:01;;;;;;;4.22;2.60;;;;;;;;;;5086344;28;20236;-76
2024/02/01 21:13:32;;;;;;;3.30;2.70;;;;;;;;;;5095263;28;20250;-77
2024/02/01 21:16:00;;;;;;;6.97;3.40;;;;;;;;;;5098021;28;20211;-78
2024/02/01 21:18:28;;;;;;;5.03;2.80;;;;;;;;;;5097322;28;20204;-78
2024/02/01 21:21:04;;;;;;;6.70;3.75;;;;;;;;;;5098126;28;20246;-77
2024/02/01 21:23:37;;;;;;;4.55;3.10;;;;;;;;;;5097349;28;20200;-78
2024/02/01 21:26:24;;;;;;;2.65;2.45;;;;;;;;;;5097540;28;20200;-79
2024/02/01 21:28:58;;;;;;;2.88;2.50;;;;;;;;;;5090104;28;20204;-78
2024/02/01 21:32:05;;;;;;;4.78;3.25;;;;;;;;;;5097937;28;20204;-78
2024/02/01 21:34:38;;;;;;;5.13;3.78;;;;;;;;;;5091238;28;20211;-78
2024/02/01 21:37:11;;;;;;;5.03;3.92;;;;;;;;;;5097346;28;20236;-78
2024/02/01 21:39:55;;;;;;;6.25;3.20;;;;;;;;;;5098122;28;20200;-78
2024/02/01 21:42:58;;;;;;;4.72;2.97;;;;;;;;;;5097662;28;20255;-78
2024/02/01 21:45:28;;;;;;;6.88;3.95;;;;;;;;;;5096989;28;20208;-78
2024/02/01 21:47:56;;;;;;;5.38;3.50;;;;;;;;;;5097380;28;20236;-77
2024/02/01 21:50:25;;;;;;;11.07;4.20;;;;;;;;;;5097411;28;20242;-79
2024/02/01 21:52:54;;;;;;;8.93;5.18;;;;;;;;;;5097430;28;20203;-78
2024/02/01 21:55:25;;;;;;;7.15;4.40;;;;;;;;;;5098174;28;20570;-77
2024/02/01 21:57:54;;;;;;;7.18;3.85;;;;;;;;;;5097069;28;20217;-78
2024/02/01 22:00:22;;;;;;;5.50;3.95;;;;;;;;;;5096885;28;20218;-77
2024/02/01 22:02:49;;;;;;;6.60;4.80;;;;;;;;;;5096366;28;20212;-79
2024/02/01 22:05:17;;;;;;;4.70;3.83;;;;;;;;;;5095510;28;20242;-76
2024/02/01 22:07:45;;;;;;;6.55;3.55;;;;;;;;;;5096776;28;20285;-78
2024/02/01 22:10:14;;;;;;;3.75;3.10;;;;;;;;;;5097165;28;20233;-78
2024/02/01 22:12:41;;;;;;;10.43;5.28;;;;;;;;;;5096918;28;20234;-78
2024/02/01 22:15:10;;;;;;;7.82;4.50;;;;;;;;;;5096505;28;20204;-78
2024/02/01 22:17:38;;;;;;;5.35;4.03;;;;;;;;;;5088454;28;20763;-79
2024/02/01 22:20:07;;;;;;;5.60;3.63;;;;;;;;;;5096755;28;20637;-79
2024/02/01 22:22:36;;;;;;;4.03;3.25;;;;;;;;;;5097133;28;20200;-78
2024/02/01 22:25:05;;;;;;;10.32;4.80;;;;;;;;;;5098008;28;20241;-79
2024/02/01 22:27:34;;;;;;;13.02;4.57;;;;;;;;;;5096899;28;20236;-78
2024/02/01 22:30:01;;;;;;;4.85;3.75;;;;;;;;;;5097454;28;20204;-79
2024/02/01 22:32:29;;;;;;;8.75;4.75;;;;;;;;;;5096422;28;20200;-78
2024/02/01 22:34:58;;;;;;;7.45;3.42;;;;;;;;;;5096716;28;20200;-78
2024/02/01 22:37:26;;;;;;;4.07;3.05;;;;;;;;;;5096582;28;20216;-79
2024/02/01 22:39:54;;;;;;;9.95;4.20;;;;;;;;;;5096381;28;20283;-79
2024/02/01 22:42:22;;;;;;;5.82;3.35;;;;;;;;;;5095942;28;20215;-78
2024/02/01 22:44:50;;;;;;;6.72;4.10;;;;;;;;;;5096696;28;20208;-78
2024/02/01 22:47:18;;;;;;;5.97;3.70;;;;;;;;;;5095712;28;20264;-78
2024/02/01 22:49:46;;;;;;;10.10;3.72;;;;;;;;;;5096087;28;20254;-78
2024/02/01 22:52:14;;;;;;;8.75;3.78;;;;;;;;;;5088284;28;20256;-79
2024/02/01 22:54:42;;;;;;;6.90;4.45;;;;;;;;;;5097127;28;20204;-79
2024/02/01 22:57:09;;;;;;;6.43;3.60;;;;;;;;;;5095787;28;20289;-78
2024/02/01 22:59:37;;;;;;;4.88;3.08;;;;;;;;;;5095085;28;20246;-78
2024/02/01 23:02:06;;;;;;;5.05;3.75;;;;;;;;;;5095843;28;20235;-78
2024/02/01 23:04:33;;;;;;;5.60;3.58;;;;;;;;;;5096631;28;20246;-78